createdAt,value
2018-04-17T00:00:09.272Z,77.61
2018-04-17T00:01:09.251Z,77.95
2018-04-17T00:02:09.230Z,77.57
2018-04-17T00:03:09.203Z,77.47
2018-04-17T00:04:09.176Z,77.47
2018-04-17T00:05:09.153Z,77.47
2018-04-17T00:06:09.120Z,77.61
2018-04-17T00:07:09.105Z,77.76
2018-04-17T00:08:09.070Z,77.67
2018-04-17T00:09:09.055Z,77.47
2018-04-17T00:10:09.029Z,77.95
2018-04-17T00:11:08.996Z,76.90
2018-04-17T00:12:08.978Z,76.90
2018-04-17T00:13:08.950Z,77.38
2018-04-17T00:14:08.925Z,77.67
2018-04-17T00:15:08.897Z,78.33
2018-04-17T00:16:08.870Z,77.67
2018-04-17T00:17:08.848Z,77.95
2018-04-17T00:18:08.827Z,77.47
2018-04-17T00:19:08.798Z,77.67
2018-04-17T00:20:08.771Z,77.57
2018-04-17T00:21:08.749Z,77.95
2018-04-17T00:22:08.728Z,78.20
2018-04-17T00:23:08.695Z,78.67
2018-04-17T00:24:08.679Z,78.20
2018-04-17T00:25:08.648Z,78.39
2018-04-17T00:26:08.619Z,78.01
2018-04-17T00:27:08.600Z,78.20
2018-04-17T00:28:08.574Z,78.20
2018-04-17T00:29:08.552Z,77.91
2018-04-17T00:30:08.526Z,78.10
2018-04-17T00:31:08.496Z,78.67
2018-04-17T00:32:08.473Z,78.20
2018-04-17T00:33:08.448Z,78.39
2018-04-17T00:34:08.423Z,78.49
2018-04-17T00:35:08.399Z,78.20
2018-04-17T00:36:08.371Z,78.49
2018-04-17T00:37:08.350Z,78.30
2018-04-17T00:38:08.323Z,78.39
2018-04-17T00:39:08.292Z,77.82
2018-04-17T00:40:08.275Z,77.95
2018-04-17T00:41:08.243Z,78.30
2018-04-17T00:42:08.855Z,78.23
2018-04-17T00:43:08.195Z,77.67
2018-04-17T00:44:08.174Z,78.33
2018-04-17T00:45:08.182Z,78.01
2018-04-17T00:46:08.116Z,77.47
2018-04-17T00:47:08.093Z,77.95
2018-04-17T00:48:08.071Z,77.95
2018-04-17T00:49:08.044Z,77.38
2018-04-17T00:50:08.028Z,77.57
2018-04-17T00:51:07.992Z,77.95
2018-04-17T00:52:07.969Z,77.91
2018-04-17T00:53:07.944Z,77.57
2018-04-17T00:54:07.926Z,77.57
2018-04-17T00:55:07.891Z,77.44
2018-04-17T00:56:07.867Z,77.44
2018-04-17T00:57:07.847Z,77.34
2018-04-17T00:58:07.817Z,77.34
2018-04-17T00:59:07.797Z,77.38
2018-04-17T01:00:07.764Z,77.47
2018-04-17T01:01:07.747Z,77.47
2018-04-17T01:02:07.716Z,77.47
2018-04-17T01:03:07.688Z,78.05
2018-04-17T01:04:07.665Z,77.95
2018-04-17T01:05:07.646Z,78.01
2018-04-17T01:06:07.617Z,77.86
2018-04-17T01:07:07.590Z,78.10
2018-04-17T01:08:07.569Z,78.01
2018-04-17T01:09:07.548Z,77.91
2018-04-17T01:10:07.519Z,77.72
2018-04-17T01:11:07.491Z,77.53
2018-04-17T01:12:07.467Z,77.62
2018-04-17T01:13:07.439Z,77.72
2018-04-17T01:14:07.415Z,77.53
2018-04-17T01:15:07.393Z,77.62
2018-04-17T01:16:07.368Z,77.82
2018-04-17T01:17:07.337Z,78.01
2018-04-17T01:18:07.312Z,77.91
2018-04-17T01:19:07.290Z,77.91
2018-04-17T01:20:07.271Z,77.72
2018-04-17T01:21:07.242Z,77.91
2018-04-17T01:22:07.211Z,77.91
2018-04-17T01:23:07.187Z,78.01
2018-04-17T01:24:07.164Z,78.20
2018-04-17T01:25:07.139Z,78.20
2018-04-17T01:26:07.114Z,78.67
2018-04-17T01:27:07.086Z,78.20
2018-04-17T01:28:07.065Z,77.62
2018-04-17T01:29:07.037Z,78.30
2018-04-17T01:30:07.009Z,78.30
2018-04-17T01:31:06.988Z,78.10
2018-04-17T01:32:06.960Z,78.10
2018-04-17T01:33:06.939Z,78.30
2018-04-17T01:34:06.913Z,78.58
2018-04-17T01:35:06.885Z,78.30
2018-04-17T01:36:06.861Z,78.30
2018-04-17T01:37:06.834Z,78.20
2018-04-17T01:38:06.812Z,78.49
2018-04-17T01:39:06.788Z,78.10
2018-04-17T01:40:06.756Z,78.20
2018-04-17T01:41:06.730Z,78.20
2018-04-17T01:42:06.704Z,78.49
2018-04-17T01:43:06.732Z,78.20
2018-04-17T01:44:06.662Z,78.58
2018-04-17T01:45:06.627Z,78.39
2018-04-17T01:46:06.610Z,78.58
2018-04-17T01:47:06.580Z,78.30
2018-04-17T01:48:06.551Z,78.67
2018-04-17T01:49:06.535Z,78.10
2018-04-17T01:50:06.505Z,78.49
2018-04-17T01:51:06.483Z,78.30
2018-04-17T01:52:06.464Z,78.10
2018-04-17T01:53:06.428Z,78.39
2018-04-17T01:54:06.410Z,78.30
2018-04-17T01:55:06.387Z,78.10
2018-04-17T01:56:06.352Z,78.20
2018-04-17T01:57:06.335Z,78.01
2018-04-17T01:58:06.302Z,78.39
2018-04-17T01:59:06.284Z,78.58
2018-04-17T02:00:06.258Z,78.01
2018-04-17T02:01:06.229Z,78.77
2018-04-17T02:02:06.208Z,78.39
2018-04-17T02:03:06.176Z,78.30
2018-04-17T02:04:06.161Z,78.39
2018-04-17T02:05:06.125Z,78.39
2018-04-17T02:06:06.096Z,78.39
2018-04-17T02:07:06.082Z,78.77
2018-04-17T02:08:06.047Z,78.01
2018-04-17T02:09:06.033Z,78.39
2018-04-17T02:10:06.005Z,78.20
2018-04-17T02:11:05.971Z,78.77
2018-04-17T02:12:05.956Z,78.30
2018-04-17T02:13:05.921Z,78.49
2018-04-17T02:14:05.898Z,78.30
2018-04-17T02:15:05.877Z,78.39
2018-04-17T02:16:05.849Z,78.64
2018-04-17T02:17:05.826Z,78.10
2018-04-17T02:18:05.806Z,78.16
2018-04-17T02:19:05.772Z,79.15
2018-04-17T02:20:05.744Z,78.54
2018-04-17T02:21:05.725Z,78.20
2018-04-17T02:22:05.702Z,78.96
2018-04-17T02:23:05.665Z,78.10
2018-04-17T02:24:05.645Z,78.64
2018-04-17T02:25:05.622Z,78.64
2018-04-17T02:26:05.598Z,78.92
2018-04-17T02:27:05.573Z,78.44
2018-04-17T02:28:05.548Z,78.92
2018-04-17T02:29:05.524Z,78.96
2018-04-17T02:30:05.495Z,78.64
2018-04-17T02:31:05.467Z,78.83
2018-04-17T02:32:05.445Z,78.83
2018-04-17T02:33:05.419Z,78.64
2018-04-17T02:34:05.392Z,78.73
2018-04-17T02:35:05.368Z,78.54
2018-04-17T02:36:05.344Z,78.64
2018-04-17T02:37:05.321Z,78.83
2018-04-17T02:38:05.293Z,78.64
2018-04-17T02:39:05.269Z,78.54
2018-04-17T02:40:05.248Z,78.92
2018-04-17T02:41:05.215Z,78.64
2018-04-17T02:42:05.189Z,78.44
2018-04-17T02:43:05.169Z,78.64
2018-04-17T02:44:05.142Z,78.64
2018-04-17T02:45:05.111Z,78.73
2018-04-17T02:46:05.088Z,78.92
2018-04-17T02:47:05.065Z,78.83
2018-04-17T02:48:05.042Z,78.73
2018-04-17T02:49:05.009Z,78.73
2018-04-17T02:50:04.985Z,78.64
2018-04-17T02:51:04.960Z,78.92
2018-04-17T02:52:04.933Z,78.54
2018-04-17T02:53:04.916Z,78.44
2018-04-17T02:54:04.887Z,78.83
2018-04-17T02:55:04.855Z,78.54
2018-04-17T02:56:04.832Z,78.92
2018-04-17T02:57:04.811Z,78.64
2018-04-17T02:58:04.777Z,78.83
2018-04-17T02:59:04.759Z,78.83
2018-04-17T03:00:04.734Z,78.44
2018-04-17T03:01:04.704Z,78.64
2018-04-17T03:02:04.680Z,79.02
2018-04-17T03:03:04.657Z,79.21
2018-04-17T03:04:04.629Z,79.21
2018-04-17T03:05:04.601Z,78.64
2018-04-17T03:06:04.581Z,78.92
2018-04-17T03:07:04.551Z,79.30
2018-04-17T03:08:04.525Z,78.92
2018-04-17T03:09:04.501Z,78.64
2018-04-17T03:10:04.473Z,78.83
2018-04-17T03:11:04.452Z,78.73
2018-04-17T03:12:04.422Z,78.64
2018-04-17T03:13:04.405Z,79.30
2018-04-17T03:14:04.382Z,78.88
2018-04-17T03:15:04.344Z,79.17
2018-04-17T03:16:04.325Z,78.64
2018-04-17T03:17:04.292Z,78.78
2018-04-17T03:18:04.270Z,79.30
2018-04-17T03:19:04.250Z,79.30
2018-04-17T03:20:04.218Z,78.92
2018-04-17T03:21:04.196Z,79.21
2018-04-17T03:22:04.172Z,79.30
2018-04-17T03:23:04.145Z,78.64
2018-04-17T03:24:04.120Z,79.21
2018-04-17T03:25:04.094Z,79.02
2018-04-17T03:26:04.064Z,78.41
2018-04-17T03:27:04.043Z,78.41
2018-04-17T03:28:04.025Z,78.64
2018-04-17T03:29:03.994Z,78.64
2018-04-17T03:30:03.962Z,78.50
2018-04-17T03:31:03.939Z,78.92
2018-04-17T03:32:03.918Z,78.59
2018-04-17T03:33:03.888Z,79.27
2018-04-17T03:34:03.865Z,79.07
2018-04-17T03:35:03.840Z,79.55
2018-04-17T03:36:03.814Z,79.55
2018-04-17T03:37:03.785Z,79.64
2018-04-17T03:38:03.757Z,79.64
2018-04-17T03:39:03.737Z,80.02
2018-04-17T03:40:03.713Z,79.64
2018-04-17T03:41:03.680Z,79.46
2018-04-17T03:42:03.655Z,79.83
2018-04-17T03:43:03.637Z,79.83
2018-04-17T03:44:03.606Z,79.74
2018-04-17T03:45:03.586Z,79.83
2018-04-17T03:46:03.557Z,80.12
2018-04-17T03:47:03.530Z,79.64
2018-04-17T03:48:03.512Z,79.93
2018-04-17T03:49:03.487Z,79.83
2018-04-17T03:50:03.459Z,80.12
2018-04-17T03:51:03.422Z,80.12
2018-04-17T03:52:03.400Z,80.12
2018-04-17T03:53:03.376Z,79.64
2018-04-17T03:54:03.348Z,79.93
2018-04-17T03:55:03.329Z,79.93
2018-04-17T03:56:03.295Z,79.55
2018-04-17T03:57:03.277Z,79.83
2018-04-17T03:58:03.246Z,79.46
2018-04-17T03:59:03.217Z,79.46
2018-04-17T04:00:03.202Z,79.46
2018-04-17T04:01:03.170Z,79.55
2018-04-17T04:02:03.149Z,79.55
2018-04-17T04:03:03.118Z,79.46
2018-04-17T04:04:03.091Z,79.17
2018-04-17T04:05:03.066Z,79.74
2018-04-17T04:06:03.038Z,80.02
2018-04-17T04:07:03.020Z,79.27
2018-04-17T04:08:03.058Z,80.12
2018-04-17T04:09:02.965Z,79.83
2018-04-17T04:10:02.945Z,79.93
2018-04-17T04:11:02.916Z,79.55
2018-04-17T04:12:02.897Z,79.46
2018-04-17T04:13:02.863Z,79.55
2018-04-17T04:14:02.839Z,79.64
2018-04-17T04:15:02.818Z,80.02
2018-04-17T04:16:02.783Z,80.12
2018-04-17T04:17:02.768Z,79.46
2018-04-17T04:18:02.734Z,79.46
2018-04-17T04:19:02.712Z,79.64
2018-04-17T04:20:02.694Z,79.64
2018-04-17T04:21:02.664Z,79.55
2018-04-17T04:22:02.638Z,79.64
2018-04-17T04:23:02.605Z,79.55
2018-04-17T04:24:02.581Z,79.17
2018-04-17T04:25:02.558Z,78.98
2018-04-17T04:26:02.532Z,79.07
2018-04-17T04:27:02.510Z,79.27
2018-04-17T04:28:02.475Z,79.07
2018-04-17T04:29:02.456Z,79.74
2018-04-17T04:30:02.432Z,79.27
2018-04-17T04:31:02.399Z,79.36
2018-04-17T04:32:02.379Z,79.46
2018-04-17T04:33:02.353Z,79.17
2018-04-17T04:34:02.337Z,79.55
2018-04-17T04:35:02.307Z,79.55
2018-04-17T04:36:02.279Z,79.64
2018-04-17T04:37:02.255Z,79.07
2018-04-17T04:38:02.223Z,79.27
2018-04-17T04:39:02.196Z,79.55
2018-04-17T04:40:02.177Z,79.83
2018-04-17T04:41:02.147Z,79.64
2018-04-17T04:42:02.117Z,79.46
2018-04-17T04:43:02.094Z,79.36
2018-04-17T04:44:02.067Z,79.17
2018-04-17T04:45:02.057Z,79.07
2018-04-17T04:46:02.020Z,79.64
2018-04-17T04:47:01.999Z,79.46
2018-04-17T04:48:01.964Z,79.93
2018-04-17T04:49:01.945Z,79.07
2018-04-17T04:50:01.916Z,79.46
2018-04-17T04:51:01.890Z,79.55
2018-04-17T04:52:01.901Z,79.55
2018-04-17T04:53:01.840Z,79.83
2018-04-17T04:54:01.819Z,79.55
2018-04-17T04:55:01.784Z,79.74
2018-04-17T04:56:01.766Z,79.36
2018-04-17T04:57:01.742Z,79.46
2018-04-17T04:58:01.706Z,79.55
2018-04-17T04:59:01.686Z,79.55
2018-04-17T05:00:01.669Z,79.83
2018-04-17T05:01:01.633Z,79.55
2018-04-17T05:02:01.614Z,79.83
2018-04-17T05:03:01.595Z,79.27
2018-04-17T05:04:01.555Z,79.27
2018-04-17T05:05:01.533Z,79.07
2018-04-17T05:06:01.501Z,79.83
2018-04-17T05:07:01.486Z,79.83
2018-04-17T05:08:01.459Z,79.83
2018-04-17T05:09:01.434Z,79.64
2018-04-17T05:10:01.398Z,79.46
2018-04-17T05:11:01.381Z,79.36
2018-04-17T05:12:01.355Z,79.27
2018-04-17T05:13:01.328Z,79.17
2018-04-17T05:14:01.306Z,79.07
2018-04-17T05:15:01.271Z,79.36
2018-04-17T05:16:01.251Z,79.27
2018-04-17T05:17:01.942Z,79.11
2018-04-17T05:18:01.196Z,78.92
2018-04-17T05:19:01.174Z,79.49
2018-04-17T05:20:01.148Z,79.68
2018-04-17T05:21:01.126Z,78.64
2018-04-17T05:22:01.100Z,78.83
2018-04-17T05:23:01.071Z,78.92
2018-04-17T05:24:01.051Z,78.73
2018-04-17T05:25:01.025Z,78.88
2018-04-17T05:26:01.000Z,79.02
2018-04-17T05:27:00.965Z,78.59
2018-04-17T05:28:00.941Z,79.11
2018-04-17T05:29:00.921Z,78.83
2018-04-17T05:30:00.889Z,79.59
2018-04-17T05:31:00.874Z,78.83
2018-04-17T05:32:00.846Z,79.49
2018-04-17T05:33:00.812Z,78.92
2018-04-17T05:34:00.789Z,78.64
2018-04-17T05:35:00.770Z,78.83
2018-04-17T05:36:00.734Z,79.02
2018-04-17T05:37:00.718Z,79.59
2018-04-17T05:38:00.684Z,79.02
2018-04-17T05:39:00.662Z,78.73
2018-04-17T05:40:00.639Z,79.11
2018-04-17T05:41:00.608Z,78.92
2018-04-17T05:42:00.594Z,78.83
2018-04-17T05:43:00.562Z,78.83
2018-04-17T05:44:00.536Z,78.92
2018-04-17T05:45:00.502Z,78.73
2018-04-17T05:46:00.487Z,78.83
2018-04-17T05:47:00.455Z,79.30
2018-04-17T05:48:01.452Z,79.02
2018-04-17T05:49:02.110Z,78.73
2018-04-17T05:50:00.380Z,79.02
2018-04-17T05:51:00.355Z,78.92
2018-04-17T05:52:00.327Z,78.73
2018-04-17T05:53:00.305Z,78.54
2018-04-17T05:54:00.279Z,78.54
2018-04-17T05:55:00.251Z,78.73
2018-04-17T05:56:00.306Z,78.92
2018-04-17T05:57:00.199Z,78.92
2018-04-17T05:58:00.171Z,78.92
2018-04-17T05:59:00.152Z,79.02
2018-04-17T06:00:00.123Z,78.83
2018-04-17T06:01:00.104Z,78.73
2018-04-17T06:02:00.077Z,79.02
2018-04-17T06:03:00.045Z,78.73
2018-04-17T06:04:00.027Z,79.02
2018-04-17T06:04:59.994Z,79.59
2018-04-17T06:05:59.966Z,79.21
2018-04-17T06:06:59.943Z,79.25
2018-04-17T06:07:59.917Z,79.44
2018-04-17T06:08:59.904Z,79.44
2018-04-17T06:09:59.872Z,79.35
2018-04-17T06:10:59.840Z,78.96
2018-04-17T06:11:59.823Z,78.86
2018-04-17T06:12:59.794Z,78.86
2018-04-17T06:13:59.774Z,78.96
2018-04-17T06:14:59.736Z,78.58
2018-04-17T06:15:59.721Z,78.67
2018-04-17T06:16:59.686Z,78.67
2018-04-17T06:17:59.661Z,79.06
2018-04-17T06:18:59.643Z,78.77
2018-04-17T06:19:59.611Z,78.96
2018-04-17T06:20:59.592Z,78.86
2018-04-17T06:21:59.565Z,78.67
2018-04-17T06:22:59.537Z,78.86
2018-04-17T06:23:59.515Z,79.15
2018-04-17T06:24:59.483Z,79.06
2018-04-17T06:25:59.495Z,78.49
2018-04-17T06:26:59.438Z,78.58
2018-04-17T06:27:59.406Z,78.58
2018-04-17T06:28:59.383Z,78.20
2018-04-17T06:29:59.354Z,78.30
2018-04-17T06:30:59.337Z,78.43
2018-04-17T06:31:59.307Z,78.52
2018-04-17T06:32:59.279Z,78.33
2018-04-17T06:33:59.266Z,78.52
2018-04-17T06:34:59.229Z,78.43
2018-04-17T06:35:59.203Z,77.95
2018-04-17T06:36:59.181Z,77.86
2018-04-17T06:37:59.152Z,77.95
2018-04-17T06:38:59.132Z,78.23
2018-04-17T06:39:59.107Z,78.14
2018-04-17T06:40:59.077Z,78.23
2018-04-17T06:41:59.101Z,78.05
2018-04-17T06:42:59.024Z,78.05
2018-04-17T06:43:59.002Z,78.23
2018-04-17T06:44:58.978Z,78.43
2018-04-17T06:45:58.950Z,77.57
2018-04-17T06:46:58.927Z,78.33
2018-04-17T06:47:58.904Z,77.76
2018-04-17T06:48:58.873Z,77.76
2018-04-17T06:49:58.862Z,77.76
2018-04-17T06:50:58.823Z,77.95
2018-04-17T06:51:58.803Z,78.14
2018-04-17T06:52:58.773Z,77.70
2018-04-17T06:53:58.749Z,77.70
2018-04-17T06:54:58.724Z,78.28
2018-04-17T06:55:58.696Z,78.09
2018-04-17T06:56:58.676Z,77.99
2018-04-17T06:57:58.693Z,77.61
2018-04-17T06:58:58.626Z,78.09
2018-04-17T06:59:58.599Z,77.99
2018-04-17T07:00:58.569Z,77.42
2018-04-17T07:01:58.544Z,77.51
2018-04-17T07:02:58.527Z,77.89
2018-04-17T07:03:58.492Z,77.42
2018-04-17T07:04:58.475Z,77.70
2018-04-17T07:05:58.451Z,77.51
2018-04-17T07:06:58.418Z,77.45
2018-04-17T07:07:58.395Z,77.65
2018-04-17T07:08:58.371Z,77.74
2018-04-17T07:09:58.345Z,77.94
2018-04-17T07:10:58.324Z,77.74
2018-04-17T07:11:58.295Z,77.94
2018-04-17T07:12:58.274Z,77.17
2018-04-17T07:13:58.247Z,77.26
2018-04-17T07:14:58.221Z,77.17
2018-04-17T07:15:58.192Z,77.17
2018-04-17T07:16:58.175Z,77.36
2018-04-17T07:17:58.148Z,76.98
2018-04-17T07:18:58.116Z,76.98
2018-04-17T07:19:58.102Z,77.08
2018-04-17T07:20:58.066Z,76.98
2018-04-17T07:21:58.042Z,76.88
2018-04-17T07:22:58.022Z,76.92
2018-04-17T07:23:57.996Z,77.17
2018-04-17T07:24:57.972Z,77.11
2018-04-17T07:25:58.027Z,76.92
2018-04-17T07:26:57.913Z,76.64
2018-04-17T07:27:57.897Z,76.92
2018-04-17T07:28:57.865Z,76.64
2018-04-17T07:29:57.845Z,75.96
2018-04-17T07:30:57.835Z,76.25
2018-04-17T07:31:57.789Z,76.45
2018-04-17T07:32:57.771Z,76.16
2018-04-17T07:33:57.742Z,76.35
2018-04-17T07:34:57.722Z,76.35
2018-04-17T07:35:57.696Z,76.35
2018-04-17T07:36:57.669Z,76.25
2018-04-17T07:37:57.646Z,76.16
2018-04-17T07:38:57.617Z,76.39
2018-04-17T07:39:57.592Z,76.57
2018-04-17T07:40:57.568Z,76.00
2018-04-17T07:41:57.541Z,76.29
2018-04-17T07:42:57.523Z,76.39
2018-04-17T07:43:57.566Z,76.57
2018-04-17T07:44:57.473Z,75.81
2018-04-17T07:45:57.441Z,75.62
2018-04-17T07:46:57.486Z,75.71
2018-04-17T07:47:57.411Z,75.14
2018-04-17T07:48:57.441Z,75.91
2018-04-17T07:49:57.348Z,75.62
2018-04-17T07:50:57.321Z,75.05
2018-04-17T07:51:57.299Z,75.24
2018-04-17T07:52:57.274Z,75.14
2018-04-17T07:53:57.293Z,74.85
2018-04-17T07:54:57.245Z,75.05
2018-04-17T07:55:57.250Z,75.37
2018-04-17T07:56:57.263Z,74.13
2018-04-17T07:57:57.189Z,74.41
2018-04-17T07:58:57.138Z,73.84
2018-04-17T07:59:57.104Z,73.65
2018-04-17T08:00:57.078Z,72.98
2018-04-17T08:01:57.051Z,73.36
2018-04-17T08:02:57.023Z,72.69
2018-04-17T08:03:57.062Z,72.54
2018-04-17T08:04:57.022Z,71.58
2018-04-17T08:05:57.003Z,71.20
2018-04-17T08:06:56.944Z,71.01
2018-04-17T08:07:56.981Z,71.11
2018-04-17T08:08:57.037Z,70.15
2018-04-17T08:09:56.917Z,69.67
2018-04-17T08:10:56.830Z,70.05
2018-04-17T08:11:56.874Z,69.51
2018-04-17T08:12:56.839Z,69.42
2018-04-17T08:13:56.779Z,69.23
2018-04-17T08:14:56.845Z,66.93
2018-04-17T08:15:56.700Z,67.11
2018-04-17T08:16:56.684Z,66.64
2018-04-17T08:17:56.710Z,66.64
2018-04-17T08:18:56.648Z,67.88
2018-04-17T08:19:56.695Z,67.31
2018-04-17T08:20:56.658Z,67.25
2018-04-17T08:21:56.561Z,66.58
2018-04-17T08:22:56.589Z,65.42
2018-04-17T08:23:56.513Z,64.47
2018-04-17T08:24:56.513Z,63.60
2018-04-17T08:25:56.459Z,63.03
2018-04-17T08:26:56.491Z,62.74
2018-04-17T08:27:56.533Z,62.55
2018-04-17T08:28:56.390Z,62.46
2018-04-17T08:29:56.421Z,62.84
2018-04-17T08:30:56.338Z,62.46
2018-04-17T08:31:56.370Z,62.65
2018-04-17T08:32:56.343Z,62.74
2018-04-17T08:33:56.333Z,62.65
2018-04-17T08:34:56.247Z,62.96
2018-04-17T08:35:56.328Z,62.30
2018-04-17T08:36:56.207Z,61.72
2018-04-17T08:37:56.174Z,61.34
2018-04-17T08:38:56.203Z,61.34
2018-04-17T08:39:56.182Z,62.10
2018-04-17T08:40:56.101Z,61.08
2018-04-17T08:41:56.115Z,61.27
2018-04-17T08:42:56.116Z,60.50
2018-04-17T08:43:56.076Z,60.89
2018-04-17T08:44:56.038Z,60.70
2018-04-17T08:45:56.052Z,59.64
2018-04-17T08:46:55.974Z,59.16
2018-04-17T08:47:55.971Z,60.44
2018-04-17T08:48:55.981Z,59.96
2018-04-17T08:49:55.889Z,56.22
2018-04-17T08:50:55.859Z,55.74
2018-04-17T08:51:55.894Z,55.93
2018-04-17T08:52:55.833Z,55.64
2018-04-17T08:53:55.836Z,55.93
2018-04-17T08:54:55.801Z,55.64
2018-04-17T08:55:55.742Z,54.49
2018-04-17T08:56:55.737Z,54.30
2018-04-17T08:57:55.739Z,53.53
2018-04-17T08:58:55.692Z,52.86
2018-04-17T08:59:55.644Z,52.76
2018-04-17T09:00:55.659Z,52.67
2018-04-17T09:01:55.655Z,52.50
2018-04-17T09:02:55.572Z,52.50
2018-04-17T09:03:55.583Z,52.67
2018-04-17T09:04:55.615Z,52.67
2018-04-17T09:05:55.542Z,52.69
2018-04-17T09:06:55.475Z,52.22
2018-04-17T09:07:55.447Z,50.87
2018-04-17T09:08:55.433Z,50.87
2018-04-17T09:09:55.443Z,49.72
2018-04-17T09:10:55.381Z,50.20
2018-04-17T09:11:55.426Z,49.72
2018-04-17T09:12:55.402Z,49.52
2018-04-17T09:13:55.376Z,50.10
2018-04-17T09:14:55.331Z,49.74
2018-04-17T09:15:55.270Z,50.32
2018-04-17T09:16:55.242Z,49.74
2018-04-17T09:17:55.218Z,49.74
2018-04-17T09:18:55.265Z,49.74
2018-04-17T09:19:55.197Z,49.26
2018-04-17T09:20:55.144Z,48.79
2018-04-17T09:21:55.183Z,48.02
2018-04-17T09:22:55.101Z,47.53
2018-04-17T09:23:55.131Z,48.02
2018-04-17T09:24:55.993Z,48.59
2018-04-17T09:25:55.033Z,48.02
2018-04-17T09:26:55.060Z,47.72
2018-04-17T09:27:55.064Z,47.25
2018-04-17T09:28:55.007Z,47.36
2018-04-17T09:29:54.970Z,47.17
2018-04-17T09:30:54.916Z,46.31
2018-04-17T09:31:54.962Z,46.69
2018-04-17T09:32:54.932Z,46.21
2018-04-17T09:33:54.847Z,45.64
2018-04-17T09:34:54.821Z,46.50
2018-04-17T09:35:54.853Z,46.50
2018-04-17T09:36:54.775Z,46.23
2018-04-17T09:37:54.789Z,45.64
2018-04-17T09:38:54.840Z,46.50
2018-04-17T09:39:54.764Z,46.41
2018-04-17T09:40:54.714Z,45.45
2018-04-17T09:41:54.711Z,45.45
2018-04-17T09:42:54.637Z,45.35
2018-04-17T09:43:54.610Z,45.54
2018-04-17T09:44:54.591Z,44.96
2018-04-17T09:45:54.563Z,44.96
2018-04-17T09:46:54.571Z,45.06
2018-04-17T09:47:54.518Z,45.83
2018-04-17T09:48:54.497Z,45.06
2018-04-17T09:49:54.482Z,44.99
2018-04-17T09:50:54.493Z,44.31
2018-04-17T09:51:54.512Z,44.29
2018-04-17T09:52:54.400Z,44.77
2018-04-17T09:53:54.375Z,44.60
2018-04-17T09:54:54.433Z,44.31
2018-04-17T09:55:54.398Z,44.41
2018-04-17T09:56:54.416Z,44.60
2018-04-17T09:57:54.341Z,44.51
2018-04-17T09:58:54.268Z,44.70
2018-04-17T09:59:54.291Z,44.89
2018-04-17T10:00:54.264Z,44.89
2018-04-17T10:01:54.251Z,44.41
2018-04-17T10:02:54.373Z,43.54
2018-04-17T10:03:54.147Z,43.64
2018-04-17T10:04:54.127Z,43.64
2018-04-17T10:05:54.195Z,44.41
2018-04-17T10:06:54.136Z,44.41
2018-04-17T10:07:54.098Z,44.22
2018-04-17T10:08:54.100Z,43.35
2018-04-17T10:09:54.013Z,41.91
2018-04-17T10:10:54.049Z,43.16
2018-04-17T10:11:54.011Z,42.97
2018-04-17T10:12:53.994Z,43.45
2018-04-17T10:13:54.008Z,44.41
2018-04-17T10:14:53.895Z,44.82
2018-04-17T10:15:53.877Z,45.01
2018-04-17T10:16:53.852Z,44.43
2018-04-17T10:17:53.829Z,43.37
2018-04-17T10:18:53.815Z,43.28
2018-04-17T10:19:53.779Z,44.14
2018-04-17T10:20:53.765Z,44.62
2018-04-17T10:21:53.732Z,44.24
2018-04-17T10:22:53.765Z,44.43
2018-04-17T10:23:53.697Z,44.24
2018-04-17T10:24:53.666Z,44.53
2018-04-17T10:25:53.645Z,44.34
2018-04-17T10:26:53.669Z,44.14
2018-04-17T10:27:53.682Z,45.10
2018-04-17T10:28:53.580Z,44.72
2018-04-17T10:29:53.603Z,44.24
2018-04-17T10:30:53.535Z,44.43
2018-04-17T10:31:53.509Z,43.95
2018-04-17T10:32:53.484Z,43.76
2018-04-17T10:33:53.481Z,43.40
2018-04-17T10:34:53.481Z,44.55
2018-04-17T10:35:53.421Z,43.08
2018-04-17T10:36:53.391Z,43.66
2018-04-17T10:37:53.367Z,43.47
2018-04-17T10:38:53.354Z,43.37
2018-04-17T10:39:53.322Z,43.47
2018-04-17T10:40:53.308Z,43.20
2018-04-17T10:41:53.288Z,43.28
2018-04-17T10:42:53.254Z,42.70
2018-04-17T10:43:53.242Z,43.08
2018-04-17T10:44:53.210Z,42.89
2018-04-17T10:45:53.462Z,42.99
2018-04-17T10:46:53.170Z,43.18
2018-04-17T10:47:53.145Z,43.66
2018-04-17T10:48:53.371Z,43.28
2018-04-17T10:49:53.101Z,43.66
2018-04-17T10:50:53.076Z,43.18
2018-04-17T10:51:53.078Z,43.28
2018-04-17T10:52:53.036Z,44.53
2018-04-17T10:53:53.495Z,44.53
2018-04-17T10:54:52.982Z,43.57
2018-04-17T10:55:52.969Z,43.37
2018-04-17T10:56:52.941Z,43.28
2018-04-17T10:57:52.914Z,43.28
2018-04-17T10:58:52.901Z,43.57
2018-04-17T10:59:52.872Z,44.53
2018-04-17T11:00:52.880Z,44.53
2018-04-17T11:01:52.830Z,44.17
2018-04-17T11:02:52.804Z,43.78
2018-04-17T11:03:52.780Z,43.68
2018-04-17T11:04:52.814Z,43.40
2018-04-17T11:05:52.743Z,44.07
2018-04-17T11:06:52.715Z,43.49
2018-04-17T11:07:52.691Z,44.45
2018-04-17T11:08:52.672Z,43.20
2018-04-17T11:09:52.654Z,41.56
2018-04-17T11:10:52.629Z,42.05
2018-04-17T11:11:52.603Z,43.11
2018-04-17T11:12:52.632Z,43.40
2018-04-17T11:13:52.560Z,43.90
2018-04-17T11:14:52.547Z,44.19
2018-04-17T11:15:52.512Z,44.38
2018-04-17T11:16:52.557Z,43.03
2018-04-17T11:17:52.465Z,43.51
2018-04-17T11:18:52.448Z,43.41
2018-04-17T11:19:52.469Z,43.32
2018-04-17T11:20:52.400Z,43.13
2018-04-17T11:21:52.373Z,43.05
2018-04-17T11:22:52.353Z,41.51
2018-04-17T11:23:52.336Z,41.20
2018-04-17T11:24:52.309Z,40.34
2018-04-17T11:25:52.284Z,41.01
2018-04-17T11:26:52.265Z,41.11
2018-04-17T11:27:52.247Z,41.88
2018-04-17T11:28:52.222Z,40.72
2018-04-17T11:29:52.197Z,41.59
2018-04-17T11:30:52.171Z,41.97
2018-04-17T11:31:52.153Z,42.26
2018-04-17T11:32:52.134Z,43.03
2018-04-17T11:33:52.107Z,41.97
2018-04-17T11:34:52.086Z,42.26
2018-04-17T11:35:52.059Z,42.16
2018-04-17T11:36:52.044Z,41.49
2018-04-17T11:37:52.019Z,41.39
2018-04-17T11:38:51.996Z,41.78
2018-04-17T11:39:51.979Z,41.01
2018-04-17T11:40:51.948Z,40.53
2018-04-17T11:41:51.927Z,40.34
2018-04-17T11:42:51.917Z,40.34
2018-04-17T11:43:51.883Z,40.63
2018-04-17T11:44:51.867Z,40.81
2018-04-17T11:45:51.844Z,41.01
2018-04-17T11:46:51.812Z,41.22
2018-04-17T11:47:51.803Z,41.71
2018-04-17T11:48:51.769Z,41.71
2018-04-17T11:49:51.754Z,42.28
2018-04-17T11:50:51.731Z,41.89
2018-04-17T11:51:51.708Z,41.99
2018-04-17T11:52:51.686Z,40.64
2018-04-17T11:53:51.662Z,40.64
2018-04-17T11:54:51.664Z,40.84
2018-04-17T11:55:51.625Z,40.55
2018-04-17T11:56:51.594Z,41.68
2018-04-17T11:57:51.587Z,42.76
2018-04-17T11:58:51.551Z,43.44
2018-04-17T11:59:51.535Z,42.47
2018-04-17T12:00:51.508Z,43.44
2018-04-17T12:01:51.515Z,42.09
2018-04-17T12:02:51.480Z,41.34
2018-04-17T12:03:51.441Z,40.66
2018-04-17T12:04:51.423Z,40.66
2018-04-17T12:05:51.395Z,40.76
2018-04-17T12:06:51.381Z,40.19
2018-04-17T12:07:51.353Z,39.99
2018-04-17T12:08:51.339Z,39.99
2018-04-17T12:09:51.315Z,40.55
2018-04-17T12:10:51.283Z,40.45
2018-04-17T12:11:51.270Z,41.24
2018-04-17T12:12:51.245Z,40.28
2018-04-17T12:13:51.224Z,41.05
2018-04-17T12:14:51.200Z,40.66
2018-04-17T12:15:51.171Z,40.57
2018-04-17T12:16:51.157Z,40.47
2018-04-17T12:17:51.132Z,39.99
2018-04-17T12:18:51.112Z,40.09
2018-04-17T12:19:51.090Z,40.66
2018-04-17T12:20:51.060Z,41.24
2018-04-17T12:21:51.040Z,41.55
2018-04-17T12:22:51.022Z,41.65
2018-04-17T12:23:50.997Z,41.94
2018-04-17T12:24:50.974Z,40.88
2018-04-17T12:25:51.000Z,40.88
2018-04-17T12:26:50.932Z,40.78
2018-04-17T12:27:50.913Z,40.51
2018-04-17T12:28:50.887Z,40.03
2018-04-17T12:29:50.871Z,39.54
2018-04-17T12:30:50.847Z,39.54
2018-04-17T12:31:50.828Z,39.45
2018-04-17T12:32:50.799Z,40.05
2018-04-17T12:33:50.782Z,39.26
2018-04-17T12:34:50.765Z,38.49
2018-04-17T12:35:50.732Z,38.21
2018-04-17T12:36:50.720Z,38.51
2018-04-17T12:37:50.695Z,38.10
2018-04-17T12:38:50.673Z,38.51
2018-04-17T12:39:50.652Z,39.09
2018-04-17T12:40:50.633Z,38.51
2018-04-17T12:41:50.611Z,38.70
2018-04-17T12:42:50.585Z,39.95
2018-04-17T12:43:50.568Z,39.39
2018-04-17T12:44:50.544Z,37.95
2018-04-17T12:45:50.525Z,37.27
2018-04-17T12:46:50.500Z,37.37
2018-04-17T12:47:50.474Z,37.65
2018-04-17T12:48:50.460Z,36.69
2018-04-17T12:49:50.483Z,35.92
2018-04-17T12:50:50.416Z,35.92
2018-04-17T12:51:50.398Z,36.98